createdAt,value
2018-04-15T00:02:28.303Z,13.41
2018-04-15T00:05:12.899Z,13.33
2018-04-15T00:07:14.697Z,13.40
2018-04-15T00:09:16.941Z,13.30
2018-04-15T00:11:18.690Z,13.36
2018-04-15T00:13:20.651Z,13.37
2018-04-15T00:15:22.540Z,13.24
2018-04-15T00:18:07.366Z,13.37
2018-04-15T00:20:52.188Z,13.51
2018-04-15T00:23:36.498Z,13.40
2018-04-15T00:26:21.712Z,13.52
2018-04-15T00:29:07.283Z,13.33
2018-04-15T00:31:52.270Z,13.40
2018-04-15T00:34:37.414Z,13.36
2018-04-15T00:36:39.074Z,13.32
2018-04-15T00:38:40.986Z,13.40
2018-04-15T00:40:42.868Z,13.38
2018-04-15T00:43:30.081Z,13.30
2018-04-15T00:46:14.314Z,13.36
2018-04-15T00:48:59.274Z,13.32
2018-04-15T00:51:45.540Z,13.37
2018-04-15T00:54:30.673Z,13.32
2018-04-15T00:56:32.967Z,13.27
2018-04-15T00:58:34.858Z,13.32
2018-04-15T01:01:18.759Z,13.37
2018-04-15T01:04:05.080Z,13.36
2018-04-15T01:06:50.876Z,13.36
2018-04-15T01:08:53.327Z,13.24
2018-04-15T01:10:55.497Z,13.20
2018-04-15T01:13:40.833Z,13.30
2018-04-15T01:16:25.505Z,13.29
2018-04-15T01:19:09.830Z,12.92
2018-04-15T01:21:55.297Z,11.90
2018-04-15T01:23:56.870Z,11.54
2018-04-15T01:26:41.921Z,11.74
2018-04-15T01:28:43.671Z,11.47
2018-04-15T01:31:29.401Z,11.71
2018-04-15T01:34:54.566Z,12.04
2018-04-15T01:38:20.964Z,12.12
2018-04-15T01:41:07.554Z,12.11
2018-04-15T01:43:53.963Z,12.30
2018-04-15T01:46:39.865Z,12.54
2018-04-15T01:49:25.063Z,12.77
2018-04-15T01:52:10.125Z,12.89
2018-04-15T01:54:55.923Z,12.97
2018-04-15T01:57:41.332Z,13.02
2018-04-15T02:00:25.840Z,13.04
2018-04-15T02:03:11.451Z,13.11
2018-04-15T02:06:37.113Z,13.12
2018-04-15T02:09:22.927Z,13.15
2018-04-15T02:12:07.467Z,13.14
2018-04-15T02:14:52.222Z,13.14
2018-04-15T02:17:36.296Z,13.11
2018-04-15T02:19:38.120Z,13.04
2018-04-15T02:22:22.235Z,13.07
2018-04-15T02:25:49.213Z,13.04
2018-04-15T02:28:33.949Z,13.11
2018-04-15T02:30:35.491Z,13.00
2018-04-15T02:33:21.601Z,13.14
2018-04-15T02:35:23.327Z,13.09
2018-04-15T02:38:09.709Z,13.12
2018-04-15T02:40:11.784Z,13.06
2018-04-15T02:42:56.285Z,13.00
2018-04-15T02:45:42.824Z,12.89
2018-04-15T02:47:44.887Z,12.89
2018-04-15T02:49:47.197Z,12.88
2018-04-15T02:52:32.176Z,12.82
2018-04-15T02:54:33.834Z,12.89
2018-04-15T02:56:36.173Z,12.89
2018-04-15T02:59:20.559Z,13.00
2018-04-15T03:02:07.389Z,12.96
2018-04-15T03:04:53.869Z,12.92
2018-04-15T03:06:55.516Z,12.95
2018-04-15T03:09:41.679Z,12.95
2018-04-15T03:12:26.880Z,12.93
2018-04-15T03:15:13.295Z,12.89
2018-04-15T03:17:59.050Z,12.92
2018-04-15T03:20:43.984Z,12.88
2018-04-15T03:23:28.639Z,12.87
2018-04-15T03:26:16.071Z,12.78
2018-04-15T03:29:03.437Z,12.84
2018-04-15T03:31:47.793Z,12.87
2018-04-15T03:34:32.242Z,12.92
2018-04-15T03:37:19.679Z,12.77
2018-04-15T03:40:03.891Z,12.78
2018-04-15T03:42:51.579Z,12.75
2018-04-15T03:45:37.075Z,12.78
2018-04-15T03:48:21.219Z,12.75
2018-04-15T03:51:07.880Z,12.69
2018-04-15T03:53:52.410Z,12.78
2018-04-15T03:55:54.171Z,12.77
2018-04-15T03:58:40.587Z,12.88
2018-04-15T04:01:29.466Z,12.69
2018-04-15T04:04:13.615Z,12.67
2018-04-15T04:06:59.492Z,12.64
2018-04-15T04:09:45.716Z,12.77
2018-04-15T04:12:32.017Z,12.66
2018-04-15T04:15:21.018Z,12.67
2018-04-15T04:17:22.754Z,12.63
2018-04-15T04:20:09.753Z,12.52
2018-04-15T04:22:56.445Z,12.30
2018-04-15T04:25:44.725Z,12.34
2018-04-15T04:28:29.777Z,12.44
2018-04-15T04:31:15.522Z,12.15
2018-04-15T04:34:00.648Z,12.06
2018-04-15T04:36:48.109Z,12.15
2018-04-15T04:39:32.096Z,12.27
2018-04-15T04:42:18.912Z,12.26
2018-04-15T04:45:03.034Z,12.13
2018-04-15T04:47:49.417Z,12.24
2018-04-15T04:49:51.697Z,12.15
2018-04-15T04:52:39.100Z,12.19
2018-04-15T04:55:26.480Z,12.27
2018-04-15T04:58:10.679Z,12.29
2018-04-15T05:00:56.321Z,12.12
2018-04-15T05:03:43.147Z,12.19
2018-04-15T05:06:27.312Z,12.08
2018-04-15T05:09:13.855Z,12.08
2018-04-15T05:11:59.235Z,11.99
2018-04-15T05:14:43.777Z,11.89
2018-04-15T05:17:30.854Z,11.80
2018-04-15T05:20:15.833Z,11.67
2018-04-15T05:22:17.529Z,11.77
2018-04-15T05:25:04.197Z,11.64
2018-04-15T05:27:51.230Z,11.44
2018-04-15T05:29:52.929Z,11.70
2018-04-15T05:32:39.231Z,11.70
2018-04-15T05:35:25.126Z,11.80
2018-04-15T05:38:10.931Z,11.90
2018-04-15T05:40:12.436Z,12.02
2018-04-15T05:42:58.790Z,12.12
2018-04-15T05:45:43.111Z,12.12
2018-04-15T05:48:30.492Z,12.06
2018-04-15T05:51:14.981Z,12.13
2018-04-15T05:54:40.770Z,12.13
2018-04-15T05:57:27.130Z,12.16
2018-04-15T05:59:28.875Z,12.16
2018-04-15T06:02:13.817Z,12.15
2018-04-15T06:04:59.819Z,12.15
2018-04-15T06:07:44.329Z,12.13
2018-04-15T06:10:28.718Z,12.26
2018-04-15T06:13:14.341Z,12.21
2018-04-15T06:15:59.413Z,12.20
2018-04-15T06:18:45.759Z,12.09
2018-04-15T06:21:43.098Z,12.09
2018-04-15T06:24:52.661Z,12.34
2018-04-15T06:27:40.350Z,12.54
2018-04-15T06:30:27.468Z,12.60
2018-04-15T06:33:53.566Z,12.57
2018-04-15T06:37:42.688Z,12.60
2018-04-15T06:40:10.757Z,12.57
2018-04-15T06:42:13.112Z,12.67
2018-04-15T06:44:16.467Z,12.70
2018-04-15T06:46:20.552Z,12.64
2018-04-15T06:48:22.457Z,12.64
2018-04-15T06:51:12.845Z,12.64
2018-04-15T06:53:15.038Z,12.78
2018-04-15T06:55:28.304Z,12.93
2018-04-15T06:57:30.192Z,12.92
2018-04-15T12:31:46.393Z,19.78
2018-04-15T12:33:50.063Z,19.55
2018-04-15T12:35:51.900Z,19.47
2018-04-15T12:37:54.895Z,19.39
2018-04-15T12:39:56.816Z,19.20
2018-04-15T12:41:58.696Z,19.18
2018-04-15T12:44:01.375Z,19.02
2018-04-15T12:46:04.528Z,18.99
2018-04-15T12:48:06.654Z,18.90
2018-04-15T12:50:08.891Z,18.76
2018-04-15T12:52:10.912Z,18.79
2018-04-15T12:54:13.699Z,18.91
2018-04-15T12:56:15.611Z,19.23
2018-04-15T12:58:17.502Z,19.53
2018-04-15T13:00:19.424Z,19.78
2018-04-15T13:02:21.466Z,19.97
2018-04-15T13:04:23.940Z,19.98
2018-04-15T13:06:25.703Z,20.20
2018-04-15T13:08:27.837Z,20.35
2018-04-15T13:10:30.158Z,20.23
2018-04-15T13:12:32.420Z,20.15
2018-04-15T13:14:34.753Z,20.20
2018-04-15T13:16:36.627Z,20.34
2018-04-15T13:18:38.606Z,20.43
2018-04-15T13:20:41.174Z,20.39
2018-04-15T13:22:43.416Z,20.54
2018-04-15T13:24:45.671Z,20.71
2018-04-15T13:26:48.015Z,21.01
2018-04-15T13:28:49.945Z,21.17
2018-04-15T13:31:34.371Z,21.19
2018-04-15T13:33:35.779Z,21.20
2018-04-15T13:35:37.196Z,20.71
2018-04-15T13:37:38.634Z,20.64
2018-04-15T13:39:40.509Z,20.68
2018-04-15T13:41:42.062Z,20.69
2018-04-15T13:43:44.072Z,20.77
2018-04-15T13:45:45.580Z,20.87
2018-04-15T13:47:47.039Z,20.91
2018-04-15T13:49:48.562Z,21.09
2018-04-15T13:51:50.363Z,21.30
2018-04-15T13:53:52.445Z,21.44
2018-04-15T13:55:54.005Z,21.71
2018-04-15T13:58:36.648Z,21.78
2018-04-15T14:02:41.043Z,21.39
2018-04-15T14:04:42.572Z,21.16
2018-04-15T14:06:44.195Z,21.16
2018-04-15T14:08:45.900Z,21.08
2018-04-15T14:11:29.186Z,21.44
2018-04-15T14:13:30.808Z,21.42
2018-04-15T14:15:34.063Z,21.06
2018-04-15T14:17:35.681Z,20.91
2018-04-15T14:19:37.330Z,20.71
2018-04-15T14:21:39.200Z,20.65
2018-04-15T14:23:41.106Z,20.74
2018-04-15T14:26:24.006Z,21.05
2018-04-15T14:28:25.597Z,21.06
2018-04-15T14:30:27.293Z,20.87
2018-04-15T14:32:29.169Z,20.89
2018-04-15T14:35:12.604Z,20.71
2018-04-15T14:37:14.608Z,20.61
2018-04-15T14:40:03.086Z,20.62
2018-04-15T14:42:48.737Z,20.62
2018-04-15T14:44:50.417Z,20.58
2018-04-15T14:46:52.495Z,20.65
2018-04-15T14:48:54.318Z,20.56
2018-04-15T14:50:57.220Z,20.61
2018-04-15T14:53:00.017Z,20.61
2018-04-15T14:55:01.536Z,20.49
2018-04-15T14:57:44.639Z,20.49
2018-04-15T15:03:32.005Z,20.66
2018-04-15T15:06:14.490Z,20.76
2018-04-15T15:08:57.222Z,20.61
2018-04-15T15:11:40.393Z,20.62
2018-04-15T15:14:23.700Z,20.96
2018-04-15T15:17:07.853Z,20.86
2018-04-15T15:19:51.449Z,20.77
2018-04-15T15:22:36.623Z,20.86
2018-04-15T15:25:20.730Z,20.77
2018-04-15T15:27:22.476Z,20.51
2018-04-15T15:29:24.277Z,20.46
2018-04-15T15:31:26.207Z,20.53
2018-04-15T15:33:28.483Z,20.65
2018-04-15T15:35:30.438Z,20.62
2018-04-15T15:37:32.787Z,20.54
2018-04-15T15:40:16.953Z,20.56
2018-04-15T15:42:18.463Z,20.49
2018-04-15T15:44:19.949Z,20.33
2018-04-15T15:46:21.394Z,20.24
2018-04-15T15:48:23.594Z,20.13
2018-04-15T15:51:08.611Z,20.23
2018-04-15T15:53:10.045Z,20.33
2018-04-15T15:55:57.343Z,20.43
2018-04-15T15:58:39.591Z,20.39
2018-04-15T16:00:41.077Z,20.56
2018-04-15T16:02:42.834Z,20.50
2018-04-15T16:04:44.770Z,20.50
2018-04-15T16:06:47.060Z,20.50
2018-04-15T16:08:48.826Z,20.56
2018-04-15T16:10:51.049Z,20.53
2018-04-15T16:12:53.206Z,20.58
2018-04-15T16:14:54.917Z,20.49
2018-04-15T16:16:56.586Z,20.51
2018-04-15T16:18:58.363Z,20.54
2018-04-15T16:21:00.425Z,20.42
2018-04-15T16:23:02.165Z,20.43
2018-04-15T16:25:04.608Z,20.39
2018-04-15T16:27:06.315Z,20.31
2018-04-15T16:29:08.105Z,20.35
2018-04-15T16:31:09.916Z,20.41
2018-04-15T16:33:11.667Z,20.43
2018-04-15T16:35:13.316Z,20.46
2018-04-15T16:37:14.992Z,20.50
2018-04-15T16:39:16.632Z,20.47
2018-04-15T16:41:18.428Z,20.49
2018-04-15T16:43:20.100Z,20.59
2018-04-15T16:45:21.920Z,20.42
2018-04-15T16:47:24.169Z,20.34
2018-04-15T16:49:26.041Z,20.39
2018-04-15T16:51:27.776Z,20.31
2018-04-15T16:53:29.525Z,20.33
2018-04-15T16:55:31.489Z,20.30
2018-04-15T16:57:33.347Z,20.38
2018-04-15T16:59:34.903Z,20.34
2018-04-15T17:01:37.259Z,20.33
2018-04-15T17:03:39.045Z,20.34
2018-04-15T17:05:41.604Z,20.34
2018-04-15T17:07:43.725Z,20.34
2018-04-15T17:09:45.887Z,20.42
2018-04-15T17:11:48.733Z,20.47
2018-04-15T17:13:51.827Z,20.51
2018-04-15T17:15:53.579Z,20.47
2018-04-15T17:17:55.431Z,20.50
2018-04-15T17:19:58.007Z,20.47
2018-04-15T17:22:00.305Z,20.56
2018-04-15T17:24:02.283Z,20.53
2018-04-15T17:26:04.144Z,20.56
2018-04-15T17:28:06.729Z,20.53
2018-04-15T17:30:08.495Z,20.50
2018-04-15T17:32:11.749Z,20.49
2018-04-15T17:34:14.493Z,20.53
2018-04-15T17:36:16.380Z,20.53
2018-04-15T17:38:18.305Z,20.49
2018-04-15T17:40:20.677Z,20.43
2018-04-15T17:42:22.405Z,20.42
2018-04-15T17:44:24.341Z,20.34
2018-04-15T17:46:26.352Z,20.35
2018-04-15T17:48:28.655Z,20.35
2018-04-15T17:50:30.580Z,20.30
2018-04-15T17:52:32.297Z,20.28
2018-04-15T17:54:35.028Z,20.34
2018-04-15T17:56:37.215Z,20.23
2018-04-15T17:58:39.077Z,20.24
2018-04-15T18:00:41.228Z,20.20
2018-04-15T18:02:42.821Z,20.18
2018-04-15T18:04:44.278Z,20.13
2018-04-15T18:06:45.869Z,20.21
2018-04-15T18:08:47.714Z,20.12
2018-04-15T18:10:49.545Z,20.05
2018-04-15T18:12:51.326Z,20.06
2018-04-15T18:14:52.998Z,19.98
2018-04-15T18:16:54.500Z,19.97
2018-04-15T18:18:56.262Z,19.86
2018-04-15T18:20:57.732Z,19.93
2018-04-15T18:22:59.575Z,19.86
2018-04-15T18:25:01.281Z,19.80
2018-04-15T18:27:03.034Z,19.75
2018-04-15T18:29:04.720Z,19.73
2018-04-15T18:31:06.443Z,19.70
2018-04-15T18:33:08.825Z,19.66
2018-04-15T18:35:10.795Z,19.57
2018-04-15T18:37:12.588Z,19.53
2018-04-15T18:39:15.175Z,19.61
2018-04-15T18:41:16.890Z,19.42
2018-04-15T18:43:18.584Z,19.51
2018-04-15T18:45:20.189Z,19.46
2018-04-15T18:47:21.991Z,19.43
2018-04-15T18:49:23.775Z,19.36
2018-04-15T18:51:26.171Z,19.32
2018-04-15T18:53:27.943Z,19.32
2018-04-15T18:55:29.657Z,19.25
2018-04-15T18:57:31.292Z,19.33
2018-04-15T18:59:33.602Z,19.24
2018-04-15T19:01:35.415Z,19.24
2018-04-15T19:03:37.104Z,19.25
2018-04-15T19:05:38.750Z,19.32
2018-04-15T19:07:40.541Z,19.28
2018-04-15T19:09:42.263Z,19.31
2018-04-15T19:11:44.008Z,19.21
2018-04-15T19:13:45.864Z,19.21
2018-04-15T19:15:47.695Z,19.25
2018-04-15T19:17:50.012Z,19.23
2018-04-15T19:19:51.912Z,19.20
2018-04-15T19:21:53.761Z,19.23
2018-04-15T19:23:56.135Z,19.23
2018-04-15T19:25:58.140Z,19.23
2018-04-15T19:27:59.973Z,19.17
2018-04-15T19:30:02.461Z,19.17
2018-04-15T19:32:04.169Z,19.08
2018-04-15T19:34:06.012Z,19.08
2018-04-15T19:36:07.677Z,19.05
2018-04-15T19:38:09.452Z,19.02
2018-04-15T19:40:11.965Z,18.95
2018-04-15T19:42:13.974Z,18.97
2018-04-15T19:44:15.774Z,18.92
2018-04-15T19:46:17.918Z,18.92
2018-04-15T19:48:19.706Z,18.94
2018-04-15T19:50:21.945Z,18.82
2018-04-15T19:52:23.718Z,18.87
2018-04-15T19:54:25.464Z,18.80
2018-04-15T19:56:27.654Z,18.72
2018-04-15T19:58:29.209Z,18.74
2018-04-15T20:00:31.110Z,18.73
2018-04-15T20:02:32.923Z,18.72
2018-04-15T20:04:34.485Z,18.67
2018-04-15T20:06:36.795Z,18.68
2018-04-15T20:08:39.000Z,18.62
2018-04-15T20:10:40.536Z,18.59
2018-04-15T20:12:42.636Z,18.62
2018-04-15T20:14:44.330Z,18.57
2018-04-15T20:16:45.986Z,18.54
2018-04-15T20:18:47.656Z,18.54
2018-04-15T20:20:49.463Z,18.58
2018-04-15T20:22:51.119Z,18.55
2018-04-15T20:24:53.045Z,18.46
2018-04-15T20:26:54.668Z,18.44
2018-04-15T20:28:56.457Z,18.49
2018-04-15T20:30:58.302Z,18.39
2018-04-15T20:32:59.887Z,18.36
2018-04-15T20:35:01.575Z,18.37
2018-04-15T20:37:03.409Z,18.34
2018-04-15T20:39:05.102Z,18.28
2018-04-15T20:41:06.828Z,18.22
2018-04-15T20:43:08.636Z,18.25
2018-04-15T20:45:10.227Z,18.25
2018-04-15T20:47:11.710Z,18.17
2018-04-15T20:49:13.323Z,18.21
2018-04-15T20:51:15.170Z,18.22
2018-04-15T20:53:16.996Z,18.19
2018-04-15T20:55:18.776Z,18.17
2018-04-15T20:57:20.402Z,18.13
2018-04-15T20:59:22.175Z,18.09
2018-04-15T21:01:23.869Z,18.09
2018-04-15T21:03:25.677Z,18.13
2018-04-15T21:05:27.516Z,18.06
2018-04-15T21:07:29.381Z,17.97
2018-04-15T21:09:31.245Z,17.97
2018-04-15T21:11:32.875Z,18.00
2018-04-15T21:13:34.774Z,18.02
2018-04-15T21:15:36.550Z,17.97
2018-04-15T21:17:38.272Z,17.99
2018-04-15T21:19:39.826Z,17.99
2018-04-15T21:21:41.487Z,17.92
2018-04-15T21:23:43.193Z,17.94
2018-04-15T21:25:44.954Z,17.92
2018-04-15T21:27:46.629Z,17.91
2018-04-15T21:29:48.174Z,17.87
2018-04-15T21:31:49.980Z,17.89
2018-04-15T21:33:51.819Z,17.76
2018-04-15T21:35:53.616Z,17.79
2018-04-15T21:37:55.270Z,17.78
2018-04-15T21:39:56.974Z,17.84
2018-04-15T21:41:58.770Z,17.78
2018-04-15T21:44:00.684Z,17.81
2018-04-15T21:46:02.380Z,17.78
2018-04-15T21:48:04.196Z,17.84
2018-04-15T21:50:05.891Z,17.74
2018-04-15T21:52:07.609Z,17.87
2018-04-15T21:54:09.535Z,17.82
2018-04-15T21:56:11.368Z,17.74
2018-04-15T21:58:13.333Z,17.82
2018-04-15T22:00:15.254Z,17.81
2018-04-15T22:02:17.495Z,17.81
2018-04-15T22:04:19.193Z,17.79
2018-04-15T22:06:20.954Z,17.76
2018-04-15T22:08:22.754Z,17.76
2018-04-15T22:10:24.469Z,17.71
2018-04-15T22:12:26.135Z,17.69
2018-04-15T22:14:27.893Z,17.73
2018-04-15T22:16:29.705Z,17.71
2018-04-15T22:18:31.516Z,17.73
2018-04-15T22:20:33.316Z,17.76
2018-04-15T22:22:35.141Z,17.73
2018-04-15T22:24:36.775Z,17.76
2018-04-15T22:26:38.391Z,17.69
2018-04-15T22:28:40.124Z,17.67
2018-04-15T22:30:41.754Z,17.62
2018-04-15T22:32:43.502Z,17.55
2018-04-15T22:34:45.153Z,17.57
2018-04-15T22:36:46.959Z,17.51
2018-04-15T22:38:48.673Z,17.50
2018-04-15T22:40:50.455Z,17.48
2018-04-15T22:42:52.335Z,17.47
2018-04-15T22:44:54.058Z,17.48
2018-04-15T22:46:55.785Z,17.43
2018-04-15T22:48:57.492Z,17.41
2018-04-15T22:50:59.160Z,17.36
2018-04-15T22:53:00.670Z,17.29
2018-04-15T22:55:02.487Z,17.32
2018-04-15T22:57:04.235Z,17.23
2018-04-15T22:59:05.855Z,17.29
2018-04-15T23:01:07.549Z,17.26
2018-04-15T23:03:09.240Z,17.30
2018-04-15T23:05:10.929Z,17.25
2018-04-15T23:07:12.774Z,17.20
2018-04-15T23:09:14.440Z,17.17
2018-04-15T23:11:15.952Z,17.07
2018-04-15T23:13:17.752Z,17.04
2018-04-15T23:15:19.623Z,17.07
2018-04-15T23:17:21.428Z,17.07
2018-04-15T23:19:23.197Z,16.96
2018-04-15T23:21:24.810Z,16.93
2018-04-15T23:23:26.475Z,16.90
2018-04-15T23:25:28.186Z,16.90
2018-04-15T23:27:29.970Z,16.93
2018-04-15T23:29:31.838Z,16.89
2018-04-15T23:31:33.594Z,16.90
2018-04-15T23:33:35.349Z,16.85
2018-04-15T23:35:37.185Z,16.78
2018-04-15T23:37:38.839Z,16.77
2018-04-15T23:39:40.517Z,16.83
2018-04-15T23:41:42.343Z,16.73
2018-04-15T23:43:44.161Z,16.80
2018-04-15T23:45:45.895Z,16.81
2018-04-15T23:47:47.609Z,16.78
2018-04-15T23:49:49.283Z,16.68
2018-04-15T23:51:50.961Z,16.70
2018-04-15T23:53:52.772Z,16.65
2018-04-15T23:55:54.578Z,16.68
2018-04-15T23:57:56.269Z,16.68
2018-04-15T23:59:58.082Z,16.63
